Aeroporto :
LOGIN :

Iscrizione | Disclaimer

   EN    FR    IT 

 










Sommario :    VFR   VFR Marginale   IFR   IFR Intensivo   IFR Molto Intensivo
Visibilità : 
Base nubi : 
>= 8 km
>= 3000ft
5 / 8 km
1000 / 3000 ft
1500m / 5 km
500 / 1000 ft
800 / 1500m
200 / 500 ft
< 800m
< 200 ft
Simboli :   Temporali  Nebbia  Neve Forte  Precipitazioni Forti  Vento > 20 kt
SIGMETs :   Varie  Temporali  Ghiacco  Turbolenza  Onda orograficha  Ceneri Vulcaniche






- Altitudine del aeroporto : 69 ft
- AEROPORTO CHIUSO.


EGXS - RAF Swinderby

ULTIMO METAR :
  • 041250Z AUTO 02010KT 9999 OVC016/// 12/07 Q1027

METARs OBSOLETI :
  • 041220Z AUTO 02010KT 9999 OVC016/// 12/07 Q1027
  • 041150Z AUTO 05010KT 9999 OVC017/// 12/07 Q1027
  • 041120Z AUTO 04011KT 9999 OVC018/// 13/07 Q1027
  • 041050Z AUTO 03011KT 9999 OVC018/// 12/07 Q1027
  • 041020Z AUTO 02011KT 9999 OVC019/// 12/07 Q1027
  • 040950Z AUTO 02010KT 9999 OVC018/// 12/06 Q1027

TAF N/A



MetMap, La meteo Aeronautica in un colpo d'occhio ! - Copyright ORBIFLY Dicembre 2007 - Disclaimer

ORBIFLY MET'MAP TEAM :

Programmazione e sviluppo : Alexandra Zaïnal
Concezione : Baudouin d'Aumeries
Supporto tecnico e logistico : Manuel Goepfert
Aiuto : Marc-Olivier Méhu
Aiuto per la traduzione : Arnaldo La Scala




FONTI E CREDITI :

   NOAA